Layuno Zallo — EA4876 — position and weather

sailwx.info

Track history (hours):
 
Tides and Currents Weather Stations Pressure Air Temp Water Temp Dewpoint Dewpoint Depression Visibility Wind Speed Wind Dir Waves Ship Positions

Layuno Zallo

Last reported at 2018-Apr-13 06:21 UTC. Time now 2018-Apr-21 15:40 UTC.
Position N 28°24' W 016°13'.
Warning: this ship's position is 8 days out of date.

Length 18 m.

Type: Fishing. MMSI: 224081290.

Date/timePositionNaut miles runAvg speedWind from/ knotsBaromVisibWave heightAir tempDewpointWater temp
2018-Apr-13 06:21N 28°24' W 016°13'3 8.4
2018-Apr-13 05:59N 28°26' W 016°11'4 8.4
2018-Apr-13 05:29N 28°30' W 016°10'0 0.2
2018-Apr-13 04:58N 28°31' W 016°10'0 0.1
2018-Apr-13 04:31N 28°31' W 016°10'0 0.1
2018-Apr-13 03:59N 28°31' W 016°10'0 0.0
2018-Apr-13 03:30N 28°31' W 016°10'0 0.1
2018-Apr-13 03:00N 28°31' W 016°10'0 0.1
2018-Apr-13 02:30N 28°31' W 016°10'0 0.1
2018-Apr-13 01:48N 28°31' W 016°10'0 0.1
2018-Apr-13 01:20N 28°31' W 016°10'0 0.1
2018-Apr-13 00:59N 28°31' W 016°10'0 0.0
2018-Apr-13 00:00N 28°31' W 016°10'0 0.0
2018-Apr-12 23:17N 28°31' W 016°10'0 0.1
2018-Apr-12 22:14N 28°31' W 016°10'2 4.8
2018-Apr-12 21:52N 28°29' W 016°09'1 1.6
2018-Apr-12 21:09N 28°28' W 016°10'0 0.9
2018-Apr-12 20:57N 28°28' W 016°10'0 0.6
2018-Apr-12 20:30N 28°28' W 016°10'0 0.7
2018-Apr-12 20:00N 28°28' W 016°10'31 6.5
2018-Apr-12 15:13N 28°24' W 015°34'3 7.6
2018-Apr-12 14:46N 28°25' W 015°31'3 7.6
2018-Apr-12 14:26N 28°26' W 015°28'3 7.7
2018-Apr-12 14:00N 28°27' W 015°24'6 7.8
2018-Apr-12 13:12N 28°29' W 015°18'  
2018-Apr-06 08:27N 28°57' W 013°33'1 3.1
2018-Apr-06 08:00N 28°58' W 013°32'0 0.0
2018-Apr-06 07:24N 28°58' W 013°32'0 0.0
2018-Apr-06 07:00N 28°58' W 013°32'0 0.0
2018-Apr-06 06:30N 28°58' W 013°32'0 0.0
2018-Apr-06 06:00N 28°58' W 013°32'0 0.0
2018-Apr-06 05:30N 28°58' W 013°32'0 0.0
2018-Apr-06 05:00N 28°58' W 013°32'0 0.0
2018-Apr-06 04:30N 28°58' W 013°32'0 0.0
2018-Apr-06 04:00N 28°58' W 013°32'0 0.0
2018-Apr-06 03:30N 28°58' W 013°32'0 0.0
2018-Apr-06 02:58N 28°58' W 013°32'0 0.0
2018-Apr-06 02:25N 28°58' W 013°32'0 0.0
2018-Apr-06 01:59N 28°58' W 013°32'0 0.0
2018-Apr-06 01:28N 28°58' W 013°32'0 0.0
2018-Apr-06 01:00N 28°58' W 013°32'0 0.0
2018-Apr-06 00:30N 28°58' W 013°32'0 0.0
2018-Apr-06 00:00N 28°58' W 013°32'0 0.0
2018-Apr-05 23:30N 28°58' W 013°32'0 0.0
2018-Apr-05 23:00N 28°58' W 013°32'  
Track history (hours):
 
Tides and Currents Weather Stations Pressure Air Temp Water Temp Dewpoint Dewpoint Depression Visibility Wind Speed Wind Dir Waves Ship Positions

Layuno Zallo

Last reported at 2018-Apr-13 06:21 UTC. Time now 2018-Apr-21 15:40 UTC.
Position N 28°24' W 016°13'.
Warning: this ship's position is 8 days out of date.

Length 18 m.

Type: Fishing. MMSI: 224081290.

Date/timePositionNaut miles runAvg speedWind from/ knotsBaromVisibWave heightAir tempDewpointWater temp
2018-Apr-13 06:21N 28°24' W 016°13'3 8.4
2018-Apr-13 05:59N 28°26' W 016°11'4 8.4
2018-Apr-13 05:29N 28°30' W 016°10'0 0.2
2018-Apr-13 04:58N 28°31' W 016°10'0 0.1
2018-Apr-13 04:31N 28°31' W 016°10'0 0.1
2018-Apr-13 03:59N 28°31' W 016°10'0 0.0
2018-Apr-13 03:30N 28°31' W 016°10'0 0.1
2018-Apr-13 03:00N 28°31' W 016°10'0 0.1
2018-Apr-13 02:30N 28°31' W 016°10'0 0.1
2018-Apr-13 01:48N 28°31' W 016°10'0 0.1
2018-Apr-13 01:20N 28°31' W 016°10'0 0.1
2018-Apr-13 00:59N 28°31' W 016°10'0 0.0
2018-Apr-13 00:00N 28°31' W 016°10'0 0.0
2018-Apr-12 23:17N 28°31' W 016°10'0 0.1
2018-Apr-12 22:14N 28°31' W 016°10'2 4.8
2018-Apr-12 21:52N 28°29' W 016°09'1 1.6
2018-Apr-12 21:09N 28°28' W 016°10'0 0.9
2018-Apr-12 20:57N 28°28' W 016°10'0 0.6
2018-Apr-12 20:30N 28°28' W 016°10'0 0.7
2018-Apr-12 20:00N 28°28' W 016°10'31 6.5
2018-Apr-12 15:13N 28°24' W 015°34'3 7.6
2018-Apr-12 14:46N 28°25' W 015°31'3 7.6
2018-Apr-12 14:26N 28°26' W 015°28'3 7.7
2018-Apr-12 14:00N 28°27' W 015°24'6 7.8
2018-Apr-12 13:12N 28°29' W 015°18'  
2018-Apr-06 08:27N 28°57' W 013°33'1 3.1
2018-Apr-06 08:00N 28°58' W 013°32'0 0.0
2018-Apr-06 07:24N 28°58' W 013°32'0 0.0
2018-Apr-06 07:00N 28°58' W 013°32'0 0.0
2018-Apr-06 06:30N 28°58' W 013°32'0 0.0
2018-Apr-06 06:00N 28°58' W 013°32'0 0.0
2018-Apr-06 05:30N 28°58' W 013°32'0 0.0
2018-Apr-06 05:00N 28°58' W 013°32'0 0.0
2018-Apr-06 04:30N 28°58' W 013°32'0 0.0
2018-Apr-06 04:00N 28°58' W 013°32'0 0.0
2018-Apr-06 03:30N 28°58' W 013°32'0 0.0
2018-Apr-06 02:58N 28°58' W 013°32'0 0.0
2018-Apr-06 02:25N 28°58' W 013°32'0 0.0
2018-Apr-06 01:59N 28°58' W 013°32'0 0.0
2018-Apr-06 01:28N 28°58' W 013°32'0 0.0
2018-Apr-06 01:00N 28°58' W 013°32'0 0.0
2018-Apr-06 00:30N 28°58' W 013°32'0 0.0
2018-Apr-06 00:00N 28°58' W 013°32'0 0.0
2018-Apr-05 23:30N 28°58' W 013°32'0 0.0
2018-Apr-05 23:00N 28°58' W 013°32'  

Dump ship's entire track history